Time;durP1;ratioP1;P1;durP2;ratioP2;P2;SDS_P1;SDS_P2;PMS_P1;PMS_P2;Temp;Humidity;BMP_temperature;BMP_pressure;BME280_temperature;BME280_humidity;BME280_pressure;Samples;Min_cycle;Max_cycle;Signal;HPM_P1;HPM_P2
2021/06/28 00:00:16;;;;;;;15.95;14.45;;;;;;;;;;1438917;41;20427;-81
2021/06/28 00:01:19;;;;;;;15.65;14.05;;;;;;;;;;1432165;41;20423;-82
2021/06/28 00:02:21;;;;;;;17.33;14.52;;;;;;;;;;1434062;41;20543;-83
2021/06/28 00:03:22;;;;;;;16.08;14.43;;;;;;;;;;1440705;41;20771;-83
2021/06/28 00:04:24;;;;;;;16.05;14.35;;;;;;;;;;1434199;41;20488;-80
2021/06/28 00:05:27;;;;;;;16.00;14.40;;;;;;;;;;1432287;41;20868;-82
2021/06/28 00:06:29;;;;;;;15.43;13.68;;;;;;;;;;1434481;41;20477;-81
2021/06/28 00:07:30;;;;;;;18.80;13.57;;;;;;;;;;1440712;41;20501;-82
2021/06/28 00:08:32;;;;;;;15.73;14.15;;;;;;;;;;1429608;41;20494;-81
2021/06/28 00:09:34;;;;;;;15.40;14.00;;;;;;;;;;1431292;41;20415;-82
2021/06/28 00:10:35;;;;;;;15.80;14.18;;;;;;;;;;1435206;41;20499;-82
2021/06/28 00:11:39;;;;;;;14.73;13.32;;;;;;;;;;1433221;41;20444;-82
2021/06/28 00:12:42;;;;;;;15.80;14.20;;;;;;;;;;1434817;41;20480;-82
2021/06/28 00:13:44;;;;;;;15.45;14.02;;;;;;;;;;1440217;41;21040;-80
2021/06/28 00:14:46;;;;;;;15.77;14.27;;;;;;;;;;1440257;41;20421;-80
2021/06/28 00:15:47;;;;;;;16.83;14.20;;;;;;;;;;1440237;41;20449;-82
2021/06/28 00:16:49;;;;;;;15.60;14.07;;;;;;;;;;1439953;41;20493;-81
2021/06/28 00:17:51;;;;;;;15.98;13.95;;;;;;;;;;1434320;41;20447;-81
2021/06/28 00:18:55;;;;;;;15.55;13.88;;;;;;;;;;1433318;41;20530;-81
2021/06/28 00:19:57;;;;;;;15.57;13.57;;;;;;;;;;1432514;41;20441;-80
2021/06/28 00:21:01;;;;;;;15.75;14.15;;;;;;;;;;1432391;41;20428;-82
2021/06/28 00:22:03;;;;;;;16.08;13.50;;;;;;;;;;1433299;41;20428;-82
2021/06/28 00:23:05;;;;;;;15.00;13.50;;;;;;;;;;1429690;41;20474;-82
2021/06/28 00:24:07;;;;;;;17.13;14.63;;;;;;;;;;1435142;41;20492;-82
2021/06/28 00:25:11;;;;;;;15.18;13.75;;;;;;;;;;1440707;41;20838;-81
2021/06/28 00:26:12;;;;;;;15.45;13.95;;;;;;;;;;1440509;41;20521;-81
2021/06/28 00:27:14;;;;;;;15.57;14.00;;;;;;;;;;1432169;41;20545;-80
2021/06/28 00:28:16;;;;;;;16.08;14.48;;;;;;;;;;1428891;41;20430;-81
2021/06/28 00:29:17;;;;;;;14.48;13.02;;;;;;;;;;1429714;41;20484;-80
2021/06/28 00:30:21;;;;;;;15.55;13.45;;;;;;;;;;1432761;41;20463;-82
2021/06/28 00:31:22;;;;;;;15.02;13.52;;;;;;;;;;1431650;41;20476;-82
2021/06/28 00:32:24;;;;;;;15.38;13.77;;;;;;;;;;1430539;41;20417;-80
2021/06/28 00:33:26;;;;;;;14.90;13.00;;;;;;;;;;1435740;41;21040;-80
2021/06/28 00:34:29;;;;;;;15.77;14.13;;;;;;;;;;1440453;41;20489;-81
2021/06/28 00:35:30;;;;;;;17.73;13.77;;;;;;;;;;1435364;41;20415;-80
2021/06/28 00:36:32;;;;;;;15.30;13.80;;;;;;;;;;1433294;41;20433;-82
2021/06/28 00:37:35;;;;;;;16.35;13.75;;;;;;;;;;1441287;41;20426;-82
2021/06/28 00:38:37;;;;;;;14.32;13.02;;;;;;;;;;1436916;41;20459;-81
2021/06/28 00:39:39;;;;;;;13.98;12.68;;;;;;;;;;1431116;41;20439;-82
2021/06/28 00:40:43;;;;;;;16.80;12.95;;;;;;;;;;1435697;41;20464;-80
2021/06/28 00:41:44;;;;;;;14.82;12.93;;;;;;;;;;1432620;41;20541;-82
2021/06/28 00:42:47;;;;;;;14.57;13.18;;;;;;;;;;1429333;41;20521;-80
2021/06/28 00:43:49;;;;;;;16.40;13.70;;;;;;;;;;1430019;41;20677;-81
2021/06/28 00:44:52;;;;;;;15.55;13.18;;;;;;;;;;1441224;41;20496;-82
2021/06/28 00:45:53;;;;;;;14.32;12.50;;;;;;;;;;1440577;41;20473;-83
2021/06/28 00:46:55;;;;;;;13.88;12.48;;;;;;;;;;1441588;41;20417;-82
2021/06/28 00:48:03;;;;;;;13.35;11.95;;;;;;;;;;1439085;41;20551;-81
2021/06/28 00:49:04;;;;;;;14.75;11.98;;;;;;;;;;1437960;41;20511;-81
2021/06/28 00:50:07;;;;;;;13.90;12.50;;;;;;;;;;1436444;41;20461;-80
2021/06/28 00:51:08;;;;;;;14.45;13.00;;;;;;;;;;1437397;41;20489;-81
2021/06/28 00:52:10;;;;;;;16.70;12.52;;;;;;;;;;1437510;41;20433;-82
2021/06/28 00:53:15;;;;;;;13.07;11.65;;;;;;;;;;1435875;41;20529;-80
2021/06/28 00:54:17;;;;;;;12.75;11.43;;;;;;;;;;1435866;41;20427;-82
2021/06/28 00:55:18;;;;;;;15.40;11.63;;;;;;;;;;1435981;41;20426;-81
2021/06/28 00:56:20;;;;;;;12.65;11.45;;;;;;;;;;1436394;41;20725;-81
2021/06/28 00:57:22;;;;;;;13.27;11.90;;;;;;;;;;1437503;41;20889;-81
2021/06/28 00:58:23;;;;;;;17.85;11.80;;;;;;;;;;1442632;41;20418;-81
2021/06/28 00:59:27;;;;;;;12.40;11.13;;;;;;;;;;1440625;41;20502;-81
2021/06/28 01:00:29;;;;;;;14.40;11.40;;;;;;;;;;1441522;41;20435;-82
2021/06/28 01:01:31;;;;;;;12.80;11.50;;;;;;;;;;1438771;41;20564;-81
2021/06/28 01:02:33;;;;;;;14.13;11.10;;;;;;;;;;1442980;41;20435;-82
2021/06/28 01:03:36;;;;;;;18.23;12.02;;;;;;;;;;1443456;41;20434;-82
2021/06/28 01:04:37;;;;;;;11.57;10.47;;;;;;;;;;1443242;41;20535;-81
2021/06/28 01:05:41;;;;;;;12.95;11.65;;;;;;;;;;1445161;41;20430;-81
2021/06/28 01:06:43;;;;;;;13.18;11.75;;;;;;;;;;1441444;41;20686;-81
2021/06/28 01:07:46;;;;;;;11.57;10.57;;;;;;;;;;1439741;41;20452;-82
2021/06/28 01:08:48;;;;;;;13.00;11.70;;;;;;;;;;1442662;41;20461;-82
2021/06/28 01:09:50;;;;;;;12.15;10.85;;;;;;;;;;1443294;41;20437;-82
2021/06/28 01:10:51;;;;;;;12.20;10.90;;;;;;;;;;1438691;41;20435;-81
2021/06/28 01:11:53;;;;;;;12.65;11.07;;;;;;;;;;1439915;41;20479;-83
2021/06/28 01:12:55;;;;;;;11.95;10.85;;;;;;;;;;1436649;41;20527;-80
2021/06/28 01:13:59;;;;;;;12.43;11.13;;;;;;;;;;1433178;41;20638;-81
2021/06/28 01:15:02;;;;;;;12.00;10.80;;;;;;;;;;1435260;41;20938;-82
2021/06/28 01:16:04;;;;;;;11.88;10.63;;;;;;;;;;1435298;41;20444;-81
2021/06/28 01:17:06;;;;;;;13.80;11.95;;;;;;;;;;1435563;41;20538;-81
2021/06/28 01:18:08;;;;;;;13.25;11.73;;;;;;;;;;1433840;41;21841;-82
2021/06/28 01:19:15;;;;;;;13.70;12.27;;;;;;;;;;1438481;41;21091;-82
2021/06/28 01:20:25;;;;;;;17.52;13.25;;;;;;;;;;1439989;41;21500;-82
2021/06/28 01:21:28;;;;;;;17.40;15.60;;;;;;;;;;1440884;41;20429;-82
2021/06/28 01:22:33;;;;;;;20.77;18.67;;;;;;;;;;1429498;41;20496;-82
2021/06/28 01:23:36;;;;;;;19.73;17.38;;;;;;;;;;1425851;41;20561;-82
2021/06/28 01:24:38;;;;;;;23.63;21.10;;;;;;;;;;1436803;41;21807;-83
2021/06/28 01:25:39;;;;;;;24.92;21.65;;;;;;;;;;1431538;41;20554;-82
2021/06/28 01:26:41;;;;;;;27.75;24.10;;;;;;;;;;1432576;41;20463;-82
2021/06/28 01:27:44;;;;;;;29.23;26.02;;;;;;;;;;1440079;41;20441;-82
2021/06/28 01:28:45;;;;;;;30.73;26.87;;;;;;;;;;1439494;41;20548;-82
2021/06/28 01:29:47;;;;;;;31.27;27.85;;;;;;;;;;1438467;41;20578;-81
2021/06/28 01:30:50;;;;;;;33.35;28.75;;;;;;;;;;1438815;41;20427;-83
2021/06/28 01:31:51;;;;;;;32.88;29.25;;;;;;;;;;1436684;41;20489;-81
2021/06/28 01:32:53;;;;;;;35.70;30.08;;;;;;;;;;1435179;41;20420;-81
2021/06/28 01:33:56;;;;;;;32.17;28.55;;;;;;;;;;1440763;41;20648;-81
2021/06/28 01:34:59;;;;;;;34.20;29.92;;;;;;;;;;1439684;41;20715;-81
2021/06/28 01:36:01;;;;;;;33.88;28.98;;;;;;;;;;1432183;41;20547;-81
2021/06/28 01:37:32;;;;;;;33.78;30.15;;;;;;;;;;1430398;41;20689;-82
2021/06/28 01:38:34;;;;;;;35.42;31.45;;;;;;;;;;1428523;41;20431;-81
2021/06/28 01:39:35;;;;;;;37.63;31.90;;;;;;;;;;1434673;41;20533;-80
2021/06/28 01:40:38;;;;;;;37.53;31.88;;;;;;;;;;1441012;41;20463;-82
2021/06/28 01:41:40;;;;;;;36.10;31.95;;;;;;;;;;1437536;41;20502;-80
2021/06/28 01:42:42;;;;;;;37.97;32.80;;;;;;;;;;1436321;41;20884;-82
2021/06/28 01:43:44;;;;;;;36.67;32.67;;;;;;;;;;1429224;41;20438;-82
2021/06/28 01:44:46;;;;;;;36.90;32.17;;;;;;;;;;1435084;41;20444;-82
2021/06/28 01:45:48;;;;;;;38.47;31.63;;;;;;;;;;1440776;41;20478;-83
2021/06/28 01:46:49;;;;;;;36.45;30.98;;;;;;;;;;1441082;41;21110;-82
2021/06/28 01:47:54;;;;;;;36.05;31.15;;;;;;;;;;1433212;41;20417;-83
2021/06/28 01:48:56;;;;;;;35.95;32.05;;;;;;;;;;1433222;41;20448;-82
2021/06/28 01:49:57;;;;;;;35.10;29.67;;;;;;;;;;1429187;41;20435;-82
2021/06/28 01:50:59;;;;;;;35.58;29.63;;;;;;;;;;1429228;41;20450;-82
2021/06/28 01:52:01;;;;;;;35.05;30.35;;;;;;;;;;1440999;41;20429;-82
2021/06/28 01:53:03;;;;;;;33.58;29.98;;;;;;;;;;1440859;41;21073;-81
2021/06/28 01:54:04;;;;;;;34.75;29.33;;;;;;;;;;1441260;41;20429;-81
2021/06/28 01:55:09;;;;;;;34.28;29.67;;;;;;;;;;1441261;41;20469;-82
2021/06/28 01:56:11;;;;;;;33.67;28.83;;;;;;;;;;1441598;41;20420;-82
2021/06/28 01:57:12;;;;;;;34.15;29.02;;;;;;;;;;1438577;41;20470;-82
2021/06/28 01:58:15;;;;;;;33.20;28.15;;;;;;;;;;1439282;41;20746;-81
2021/06/28 01:59:17;;;;;;;30.58;26.30;;;;;;;;;;1435533;41;20453;-82
2021/06/28 02:00:31;;;;;;;32.10;26.85;;;;;;;;;;1436992;41;20431;-82
2021/06/28 02:01:33;;;;;;;27.40;24.58;;;;;;;;;;1438860;41;20433;-82
2021/06/28 02:02:34;;;;;;;30.92;24.20;;;;;;;;;;1434289;41;20507;-81
2021/06/28 02:03:38;;;;;;;29.88;24.83;;;;;;;;;;1431145;41;21687;-81
2021/06/28 02:04:40;;;;;;;29.05;24.70;;;;;;;;;;1430572;41;20421;-81
2021/06/28 02:05:44;;;;;;;26.65;23.45;;;;;;;;;;1431846;41;20427;-83
2021/06/28 02:06:47;;;;;;;27.58;24.52;;;;;;;;;;1441586;41;20463;-83
2021/06/28 02:07:48;;;;;;;31.67;23.58;;;;;;;;;;1438424;41;21102;-82
2021/06/28 02:08:50;;;;;;;27.52;22.23;;;;;;;;;;1432429;41;20458;-84
2021/06/28 02:09:52;;;;;;;27.40;22.70;;;;;;;;;;1433140;41;20419;-81
2021/06/28 02:10:56;;;;;;;27.95;22.98;;;;;;;;;;1432824;41;20508;-82
2021/06/28 02:11:58;;;;;;;23.45;21.00;;;;;;;;;;1440428;41;20414;-79
2021/06/28 02:13:00;;;;;;;25.40;22.35;;;;;;;;;;1444153;41;20441;-79
2021/06/28 02:14:02;;;;;;;26.90;22.50;;;;;;;;;;1438819;41;20435;-80
2021/06/28 02:15:04;;;;;;;28.05;23.85;;;;;;;;;;1434641;41;20541;-81
2021/06/28 02:16:06;;;;;;;26.38;22.70;;;;;;;;;;1440252;41;20513;-82
2021/06/28 02:17:08;;;;;;;27.17;22.67;;;;;;;;;;1446166;41;20422;-81
2021/06/28 02:18:09;;;;;;;27.08;22.35;;;;;;;;;;1444394;41;20428;-83
2021/06/28 02:19:11;;;;;;;27.00;21.70;;;;;;;;;;1445209;41;20852;-80
2021/06/28 02:20:13;;;;;;;25.25;21.42;;;;;;;;;;1437667;41;20810;-80
2021/06/28 02:21:15;;;;;;;25.75;20.58;;;;;;;;;;1438794;41;20475;-82
2021/06/28 02:22:17;;;;;;;23.88;20.38;;;;;;;;;;1439648;41;20481;-81
2021/06/28 02:23:21;;;;;;;24.35;20.30;;;;;;;;;;1441899;41;20701;-79
2021/06/28 02:24:22;;;;;;;25.50;20.35;;;;;;;;;;1437623;41;20813;-81
2021/06/28 02:25:24;;;;;;;24.92;20.70;;;;;;;;;;1438191;41;20438;-81
2021/06/28 02:26:26;;;;;;;23.63;20.45;;;;;;;;;;1431952;41;20481;-81
2021/06/28 02:27:27;;;;;;;22.92;19.60;;;;;;;;;;1437157;41;20522;-81
2021/06/28 02:28:31;;;;;;;22.45;19.27;;;;;;;;;;1436862;41;20461;-81
2021/06/28 02:29:33;;;;;;;22.90;18.90;;;;;;;;;;1435971;41;20508;-82
2021/06/28 02:30:35;;;;;;;21.83;19.42;;;;;;;;;;1440387;41;20440;-82
2021/06/28 02:31:38;;;;;;;22.00;19.65;;;;;;;;;;1433063;41;20420;-81
2021/06/28 02:32:41;;;;;;;25.50;19.15;;;;;;;;;;1436335;41;20410;-80
2021/06/28 02:33:43;;;;;;;21.33;18.85;;;;;;;;;;1437080;41;20449;-82
2021/06/28 02:34:45;;;;;;;20.73;18.40;;;;;;;;;;1438504;41;20517;-82
2021/06/28 02:35:47;;;;;;;23.48;18.95;;;;;;;;;;1435156;41;20435;-82
2021/06/28 02:36:49;;;;;;;22.88;18.70;;;;;;;;;;1431674;41;20495;-82
2021/06/28 02:37:50;;;;;;;21.10;18.90;;;;;;;;;;1440782;41;20423;-80
2021/06/28 02:38:56;;;;;;;23.20;19.23;;;;;;;;;;1439763;41;20947;-81
2021/06/28 02:39:59;;;;;;;22.80;18.70;;;;;;;;;;1435022;41;21231;-82
2021/06/28 02:41:01;;;;;;;20.63;18.13;;;;;;;;;;1435578;41;20427;-82
2021/06/28 02:42:04;;;;;;;22.95;18.85;;;;;;;;;;1440535;41;20438;-83
2021/06/28 02:43:05;;;;;;;20.42;18.23;;;;;;;;;;1434921;41;20461;-83
2021/06/28 02:44:07;;;;;;;19.92;17.73;;;;;;;;;;1433093;41;20443;-81
2021/06/28 02:45:09;;;;;;;22.00;17.48;;;;;;;;;;1434735;41;20469;-82
2021/06/28 02:46:12;;;;;;;19.30;16.73;;;;;;;;;;1441351;41;20459;-82
2021/06/28 02:47:14;;;;;;;21.27;18.17;;;;;;;;;;1440545;41;20411;-82
2021/06/28 02:48:15;;;;;;;21.40;18.17;;;;;;;;;;1436479;41;20536;-81
2021/06/28 02:49:17;;;;;;;28.88;18.42;;;;;;;;;;1436161;41;20446;-82
2021/06/28 02:50:19;;;;;;;23.98;18.75;;;;;;;;;;1437973;41;20455;-82
2021/06/28 02:51:21;;;;;;;20.45;18.25;;;;;;;;;;1436567;41;20436;-81
2021/06/28 02:52:23;;;;;;;21.02;18.73;;;;;;;;;;1439969;41;20507;-82
2021/06/28 02:53:24;;;;;;;27.83;20.42;;;;;;;;;;1439365;41;20995;-82
2021/06/28 02:54:27;;;;;;;23.85;19.92;;;;;;;;;;1440912;41;20773;-81
2021/06/28 02:55:31;;;;;;;25.30;19.98;;;;;;;;;;1441826;41;20775;-81
2021/06/28 02:56:33;;;;;;;24.50;20.27;;;;;;;;;;1439385;41;20688;-81
2021/06/28 02:57:35;;;;;;;25.55;20.40;;;;;;;;;;1438745;41;20861;-82
2021/06/28 02:58:38;;;;;;;27.05;22.35;;;;;;;;;;1440871;41;20437;-82
2021/06/28 02:59:39;;;;;;;27.52;21.92;;;;;;;;;;1434171;41;20432;-81
2021/06/28 03:00:41;;;;;;;27.43;22.30;;;;;;;;;;1434017;41;20601;-80
2021/06/28 03:01:43;;;;;;;29.23;23.02;;;;;;;;;;1437141;41;20455;-81
2021/06/28 03:02:45;;;;;;;26.08;21.42;;;;;;;;;;1440564;41;20484;-82
2021/06/28 03:03:47;;;;;;;30.45;24.27;;;;;;;;;;1430864;41;20444;-82
2021/06/28 03:04:49;;;;;;;25.58;21.88;;;;;;;;;;1436111;41;20552;-81
2021/06/28 03:05:50;;;;;;;27.00;22.92;;;;;;;;;;1438874;41;20454;-81
2021/06/28 03:06:52;;;;;;;29.13;22.83;;;;;;;;;;1440387;41;20428;-81
2021/06/28 03:07:54;;;;;;;28.27;23.30;;;;;;;;;;1439076;41;20428;-83
2021/06/28 03:08:56;;;;;;;27.73;23.67;;;;;;;;;;1439754;41;20564;-82
2021/06/28 03:09:57;;;;;;;30.30;23.45;;;;;;;;;;1440985;41;20433;-80
2021/06/28 03:11:03;;;;;;;30.00;24.27;;;;;;;;;;1440745;41;20510;-80
2021/06/28 03:12:06;;;;;;;32.25;24.73;;;;;;;;;;1439022;41;20427;-81
2021/06/28 03:13:08;;;;;;;32.17;25.23;;;;;;;;;;1440304;41;20435;-81
2021/06/28 03:14:10;;;;;;;34.55;26.00;;;;;;;;;;1438662;41;21230;-83
2021/06/28 03:15:14;;;;;;;30.92;25.95;;;;;;;;;;1430537;41;20489;-81
2021/06/28 03:16:16;;;;;;;28.45;24.50;;;;;;;;;;1428990;41;20517;-81
2021/06/28 03:17:18;;;;;;;32.25;25.33;;;;;;;;;;1440986;41;20442;-82
2021/06/28 03:18:20;;;;;;;31.30;25.45;;;;;;;;;;1440315;41;20510;-82
2021/06/28 03:19:21;;;;;;;32.00;26.35;;;;;;;;;;1439731;41;20894;-81
2021/06/28 03:20:23;;;;;;;30.48;24.48;;;;;;;;;;1439639;41;20437;-82
2021/06/28 03:21:24;;;;;;;30.75;24.67;;;;;;;;;;1441301;41;20406;-80
2021/06/28 03:22:26;;;;;;;28.92;24.63;;;;;;;;;;1434991;41;20472;-82
2021/06/28 03:23:28;;;;;;;32.70;25.25;;;;;;;;;;1434910;41;20428;-81
2021/06/28 03:24:29;;;;;;;32.42;24.30;;;;;;;;;;1435077;41;20873;-80
2021/06/28 03:25:31;;;;;;;30.27;23.85;;;;;;;;;;1430565;41;20469;-81
2021/06/28 03:26:33;;;;;;;27.38;23.92;;;;;;;;;;1429620;41;20736;-81
2021/06/28 03:27:35;;;;;;;30.53;24.43;;;;;;;;;;1436067;41;20936;-81
2021/06/28 03:28:37;;;;;;;30.88;24.23;;;;;;;;;;1439946;41;20429;-81
2021/06/28 03:29:38;;;;;;;30.48;23.98;;;;;;;;;;1431709;41;21201;-80
2021/06/28 03:30:40;;;;;;;28.23;24.10;;;;;;;;;;1436857;41;20464;-82
2021/06/28 03:31:42;;;;;;;32.73;24.43;;;;;;;;;;1440786;41;20416;-81
2021/06/28 03:32:45;;;;;;;29.25;24.45;;;;;;;;;;1434264;41;20486;-82
2021/06/28 03:33:46;;;;;;;31.38;24.95;;;;;;;;;;1425943;41;20451;-83
2021/06/28 03:34:48;;;;;;;30.42;24.05;;;;;;;;;;1436933;41;20471;-79
2021/06/28 03:35:50;;;;;;;30.63;24.52;;;;;;;;;;1438037;41;20441;-82
2021/06/28 03:36:52;;;;;;;30.35;24.20;;;;;;;;;;1442823;41;20497;-80
2021/06/28 03:37:54;;;;;;;32.47;24.50;;;;;;;;;;1441492;41;20435;-80
2021/06/28 03:38:56;;;;;;;30.23;24.52;;;;;;;;;;1438103;41;21158;-80
2021/06/28 03:39:58;;;;;;;31.55;24.67;;;;;;;;;;1440282;41;20505;-80
2021/06/28 03:40:59;;;;;;;30.80;24.63;;;;;;;;;;1437769;41;20546;-82
2021/06/28 03:42:01;;;;;;;29.85;24.05;;;;;;;;;;1435322;41;20470;-81
2021/06/28 03:43:06;;;;;;;32.22;24.98;;;;;;;;;;1440975;41;20412;-83
2021/06/28 03:44:07;;;;;;;30.40;24.70;;;;;;;;;;1446107;41;20460;-79
2021/06/28 03:45:11;;;;;;;29.65;24.27;;;;;;;;;;1442026;41;20427;-82
2021/06/28 03:46:13;;;;;;;33.75;26.15;;;;;;;;;;1440695;41;20432;-80
2021/06/28 03:47:14;;;;;;;28.95;24.13;;;;;;;;;;1436526;41;20802;-81
2021/06/28 03:48:16;;;;;;;27.67;24.27;;;;;;;;;;1434720;41;20431;-81
2021/06/28 03:49:22;;;;;;;28.25;23.48;;;;;;;;;;1433092;41;20749;-81
2021/06/28 03:50:24;;;;;;;26.85;22.23;;;;;;;;;;1437562;41;20448;-82
2021/06/28 03:51:26;;;;;;;28.43;23.83;;;;;;;;;;1440046;41;20516;-83
2021/06/28 03:52:28;;;;;;;27.70;22.55;;;;;;;;;;1436484;41;20893;-80
2021/06/28 03:53:30;;;;;;;25.25;21.90;;;;;;;;;;1432316;41;20421;-81
2021/06/28 03:54:31;;;;;;;24.13;21.58;;;;;;;;;;1433342;41;20428;-79
2021/06/28 03:55:33;;;;;;;26.77;22.38;;;;;;;;;;1437441;41;20411;-81
2021/06/28 03:56:35;;;;;;;27.27;22.88;;;;;;;;;;1434863;41;20553;-82
2021/06/28 03:57:37;;;;;;;23.80;21.08;;;;;;;;;;1434611;41;20558;-82
2021/06/28 03:58:39;;;;;;;27.67;21.45;;;;;;;;;;1441031;41;20441;-81
2021/06/28 03:59:41;;;;;;;25.50;21.73;;;;;;;;;;1441356;41;21378;-80
2021/06/28 04:00:47;;;;;;;26.60;21.70;;;;;;;;;;1431008;41;20602;-80
2021/06/28 04:01:49;;;;;;;27.70;21.30;;;;;;;;;;1435615;41;20483;-80
2021/06/28 04:02:52;;;;;;;23.58;21.17;;;;;;;;;;1433255;41;20447;-82
2021/06/28 04:03:54;;;;;;;22.35;19.85;;;;;;;;;;1434177;41;20531;-83
2021/06/28 04:04:56;;;;;;;25.23;20.52;;;;;;;;;;1441241;41;20447;-82
2021/06/28 04:06:02;;;;;;;23.60;19.80;;;;;;;;;;1437319;41;20824;-82
2021/06/28 04:07:03;;;;;;;22.35;19.30;;;;;;;;;;1438268;41;20474;-81
2021/06/28 04:08:05;;;;;;;22.30;19.67;;;;;;;;;;1438569;41;20533;-80
2021/06/28 04:09:07;;;;;;;22.35;19.38;;;;;;;;;;1435875;41;20490;-82
2021/06/28 04:10:09;;;;;;;19.52;17.52;;;;;;;;;;1437821;41;20777;-81
2021/06/28 04:11:10;;;;;;;21.10;18.05;;;;;;;;;;1440565;41;20459;-81
2021/06/28 04:12:12;;;;;;;22.70;18.15;;;;;;;;;;1440294;41;20441;-82
2021/06/28 04:13:14;;;;;;;21.15;17.85;;;;;;;;;;1436206;41;20413;-81
2021/06/28 04:14:15;;;;;;;19.50;17.17;;;;;;;;;;1438873;41;20554;-81
2021/06/28 04:15:19;;;;;;;23.63;18.55;;;;;;;;;;1442336;41;20597;-83
2021/06/28 04:16:20;;;;;;;20.27;17.00;;;;;;;;;;1436358;41;20504;-82
2021/06/28 04:17:22;;;;;;;19.80;16.15;;;;;;;;;;1428581;41;20433;-82
2021/06/28 04:18:24;;;;;;;18.42;16.42;;;;;;;;;;1430847;41;20465;-82
2021/06/28 04:19:25;;;;;;;18.42;15.70;;;;;;;;;;1439259;41;20489;-82
2021/06/28 04:20:27;;;;;;;17.30;15.33;;;;;;;;;;1438775;41;21257;-82
2021/06/28 04:21:31;;;;;;;17.05;15.30;;;;;;;;;;1430686;41;20451;-81
2021/06/28 04:22:33;;;;;;;17.88;15.98;;;;;;;;;;1432493;41;20474;-80
2021/06/28 04:23:35;;;;;;;15.50;14.00;;;;;;;;;;1435922;41;20443;-80
2021/06/28 04:24:36;;;;;;;16.05;14.48;;;;;;;;;;1433514;41;20807;-81
2021/06/28 04:25:39;;;;;;;17.42;14.93;;;;;;;;;;1433930;41;20553;-81
2021/06/28 04:26:41;;;;;;;16.02;14.30;;;;;;;;;;1434393;41;20459;-81
2021/06/28 04:27:43;;;;;;;16.67;14.20;;;;;;;;;;1439186;41;20472;-81
2021/06/28 04:28:45;;;;;;;17.10;14.10;;;;;;;;;;1435605;41;21481;-81
2021/06/28 04:29:46;;;;;;;16.20;14.13;;;;;;;;;;1425621;41;20464;-81
2021/06/28 04:30:48;;;;;;;20.95;14.65;;;;;;;;;;1428696;41;20480;-81
2021/06/28 04:31:51;;;;;;;15.52;13.25;;;;;;;;;;1438228;41;21180;-81
2021/06/28 04:32:53;;;;;;;15.35;13.88;;;;;;;;;;1438894;41;21208;-81
2021/06/28 04:33:55;;;;;;;15.80;13.80;;;;;;;;;;1441321;41;20455;-82
2021/06/28 04:34:58;;;;;;;14.75;13.30;;;;;;;;;;1434403;41;20417;-81
2021/06/28 04:36:00;;;;;;;14.93;13.35;;;;;;;;;;1435506;41;20440;-81
2021/06/28 04:37:02;;;;;;;15.55;14.05;;;;;;;;;;1443295;41;20428;-81
2021/06/28 04:38:04;;;;;;;15.73;14.18;;;;;;;;;;1439565;41;20441;-82
2021/06/28 04:39:05;;;;;;;14.57;13.07;;;;;;;;;;1432805;41;20437;-80
2021/06/28 04:40:10;;;;;;;14.55;13.25;;;;;;;;;;1430494;41;20819;-81
2021/06/28 04:41:11;;;;;;;14.63;13.23;;;;;;;;;;1436773;41;20443;-79
2021/06/28 04:42:13;;;;;;;14.38;12.88;;;;;;;;;;1438535;41;20435;-80
2021/06/28 04:43:15;;;;;;;14.68;13.38;;;;;;;;;;1439419;41;20421;-80
2021/06/28 04:44:16;;;;;;;15.13;13.63;;;;;;;;;;1435250;41;20416;-79
2021/06/28 04:45:20;;;;;;;14.57;13.07;;;;;;;;;;1431593;41;20438;-81
2021/06/28 04:46:21;;;;;;;14.45;12.98;;;;;;;;;;1433915;41;20430;-79
2021/06/28 04:47:23;;;;;;;14.10;12.68;;;;;;;;;;1437981;41;20432;-79
2021/06/28 04:48:24;;;;;;;14.20;12.53;;;;;;;;;;1437300;41;20436;-79
2021/06/28 04:49:26;;;;;;;12.90;11.75;;;;;;;;;;1439939;41;20419;-79
2021/06/28 04:50:27;;;;;;;12.88;11.55;;;;;;;;;;1445021;41;20523;-80
2021/06/28 04:51:31;;;;;;;14.10;11.73;;;;;;;;;;1439688;41;20592;-81
2021/06/28 04:52:34;;;;;;;12.80;11.70;;;;;;;;;;1435687;41;20413;-81
2021/06/28 04:53:37;;;;;;;13.80;12.48;;;;;;;;;;1437374;41;20511;-81
2021/06/28 04:54:38;;;;;;;12.93;11.83;;;;;;;;;;1438887;41;20459;-80
2021/06/28 04:55:40;;;;;;;13.13;11.93;;;;;;;;;;1440020;41;20410;-82
2021/06/28 04:56:42;;;;;;;13.00;11.60;;;;;;;;;;1437474;41;20423;-81
2021/06/28 04:57:45;;;;;;;12.43;11.18;;;;;;;;;;1438820;41;20459;-80
2021/06/28 04:58:46;;;;;;;13.27;12.02;;;;;;;;;;1438403;41;20466;-79
2021/06/28 04:59:48;;;;;;;13.00;11.70;;;;;;;;;;1439777;41;20539;-79
2021/06/28 05:00:49;;;;;;;12.98;11.68;;;;;;;;;;1431748;41;20417;-80
2021/06/28 05:01:51;;;;;;;13.00;11.80;;;;;;;;;;1431560;41;20447;-80
2021/06/28 05:02:53;;;;;;;12.27;11.18;;;;;;;;;;1433577;41;20534;-80
2021/06/28 05:03:54;;;;;;;13.23;11.85;;;;;;;;;;1434108;41;20556;-83
2021/06/28 05:04:56;;;;;;;12.07;10.88;;;;;;;;;;1431446;41;20626;-82
2021/06/28 05:05:58;;;;;;;12.73;11.55;;;;;;;;;;1438943;41;20451;-81
2021/06/28 05:06:59;;;;;;;13.07;11.88;;;;;;;;;;1440455;41;20441;-80
2021/06/28 05:08:01;;;;;;;12.75;11.32;;;;;;;;;;1441427;41;20526;-79
2021/06/28 05:09:03;;;;;;;13.02;11.77;;;;;;;;;;1438877;41;20510;-79
2021/06/28 05:10:06;;;;;;;13.75;12.40;;;;;;;;;;1433916;41;20471;-81
2021/06/28 05:11:08;;;;;;;13.43;12.13;;;;;;;;;;1433981;41;20514;-80
2021/06/28 05:12:11;;;;;;;12.88;11.75;;;;;;;;;;1434056;41;20949;-80
2021/06/28 05:13:12;;;;;;;14.93;11.30;;;;;;;;;;1435953;41;20442;-81
2021/06/28 05:14:14;;;;;;;12.90;11.38;;;;;;;;;;1439527;41;20454;-81
2021/06/28 05:15:16;;;;;;;12.65;11.45;;;;;;;;;;1436069;41;20469;-80
2021/06/28 05:16:17;;;;;;;14.63;13.18;;;;;;;;;;1432331;41;20632;-80
2021/06/28 05:17:19;;;;;;;12.77;11.57;;;;;;;;;;1433139;41;21716;-79
2021/06/28 05:18:21;;;;;;;13.35;11.35;;;;;;;;;;1433365;41;20598;-80
2021/06/28 05:19:22;;;;;;;13.63;11.65;;;;;;;;;;1436530;41;20465;-82
2021/06/28 05:20:24;;;;;;;12.48;11.35;;;;;;;;;;1439939;41;20424;-79
2021/06/28 05:21:25;;;;;;;12.77;11.57;;;;;;;;;;1442558;41;20418;-80
2021/06/28 05:22:27;;;;;;;11.98;10.88;;;;;;;;;;1441251;41;20430;-80
2021/06/28 05:23:28;;;;;;;12.15;11.13;;;;;;;;;;1441419;41;20574;-79
2021/06/28 05:24:31;;;;;;;12.63;11.57;;;;;;;;;;1441449;41;20575;-82
2021/06/28 05:25:32;;;;;;;12.02;10.82;;;;;;;;;;1439919;41;20900;-79
2021/06/28 05:26:35;;;;;;;12.38;11.27;;;;;;;;;;1434952;41;20962;-81
2021/06/28 05:27:38;;;;;;;13.40;12.18;;;;;;;;;;1437179;41;20515;-80
2021/06/28 05:28:39;;;;;;;12.68;11.52;;;;;;;;;;1436473;41;20453;-81
2021/06/28 05:29:41;;;;;;;12.50;11.50;;;;;;;;;;1433564;41;20468;-82
2021/06/28 05:30:43;;;;;;;14.10;12.90;;;;;;;;;;1430382;41;20551;-80
2021/06/28 05:31:44;;;;;;;14.35;12.07;;;;;;;;;;1429776;41;20462;-80
2021/06/28 05:32:47;;;;;;;12.45;11.35;;;;;;;;;;1435903;41;20497;-80
2021/06/28 05:33:48;;;;;;;12.93;11.52;;;;;;;;;;1439622;41;20410;-80
2021/06/28 05:34:51;;;;;;;13.00;11.70;;;;;;;;;;1437653;41;20824;-80
2021/06/28 05:35:52;;;;;;;12.68;11.57;;;;;;;;;;1435718;41;20546;-80
2021/06/28 05:36:54;;;;;;;12.77;11.43;;;;;;;;;;1430243;41;20479;-81
2021/06/28 05:37:55;;;;;;;14.00;12.38;;;;;;;;;;1435058;41;20680;-81
2021/06/28 05:38:57;;;;;;;13.48;12.18;;;;;;;;;;1439818;41;20477;-81
2021/06/28 05:39:58;;;;;;;13.02;11.82;;;;;;;;;;1435291;41;20417;-81
2021/06/28 05:41:00;;;;;;;12.60;11.30;;;;;;;;;;1436573;41;20439;-81
2021/06/28 05:42:02;;;;;;;12.25;11.15;;;;;;;;;;1434915;41;20416;-80
2021/06/28 05:43:03;;;;;;;12.23;11.23;;;;;;;;;;1428162;41;20811;-79
2021/06/28 05:44:05;;;;;;;13.98;12.52;;;;;;;;;;1426634;41;20455;-81
2021/06/28 05:45:08;;;;;;;13.55;12.25;;;;;;;;;;1433346;41;20410;-80
2021/06/28 05:46:10;;;;;;;12.00;11.00;;;;;;;;;;1429624;41;20472;-79
2021/06/28 05:47:13;;;;;;;12.40;11.40;;;;;;;;;;1439727;41;20431;-80
2021/06/28 05:48:15;;;;;;;12.60;11.30;;;;;;;;;;1439769;41;20428;-79
2021/06/28 05:49:17;;;;;;;12.63;11.32;;;;;;;;;;1440182;41;20429;-84
2021/06/28 05:50:19;;;;;;;11.75;10.68;;;;;;;;;;1432205;41;20425;-84
2021/06/28 05:51:21;;;;;;;11.98;10.90;;;;;;;;;;1426392;41;20839;-85
2021/06/28 05:52:23;;;;;;;12.13;10.93;;;;;;;;;;1428892;41;20782;-82
2021/06/28 05:53:25;;;;;;;12.00;10.88;;;;;;;;;;1433595;41;20565;-86
2021/06/28 05:54:27;;;;;;;11.38;10.48;;;;;;;;;;1440900;41;20509;-84
2021/06/28 05:55:29;;;;;;;14.23;10.85;;;;;;;;;;1441098;41;20538;-82
2021/06/28 05:56:31;;;;;;;12.65;10.68;;;;;;;;;;1439945;41;20434;-83
2021/06/28 05:57:32;;;;;;;12.55;11.40;;;;;;;;;;1439677;41;20584;-84
2021/06/28 05:58:35;;;;;;;12.32;11.32;;;;;;;;;;1440104;41;20509;-82
2021/06/28 05:59:37;;;;;;;12.18;10.93;;;;;;;;;;1439816;41;20421;-86
2021/06/28 06:00:39;;;;;;;12.35;11.07;;;;;;;;;;1430318;41;20424;-82
2021/06/28 06:01:41;;;;;;;12.35;11.15;;;;;;;;;;1426820;41;20432;-81